createdAt,value
2023-05-12T00:00:28.722Z,3.36
2023-05-12T00:01:28.785Z,2.87
2023-05-12T00:02:29.859Z,3.07
2023-05-12T00:03:30.031Z,3.35
2023-05-12T00:04:29.904Z,3.33
2023-05-12T00:05:29.935Z,2.76
2023-05-12T00:06:29.977Z,2.75
2023-05-12T00:07:29.015Z,3.02
2023-05-12T00:08:30.033Z,2.97
2023-05-12T00:09:30.051Z,2.90
2023-05-12T00:10:30.066Z,2.73
2023-05-12T00:11:30.072Z,2.86
2023-05-12T00:12:30.107Z,2.76
2023-05-12T00:13:30.169Z,3.11
2023-05-12T00:14:30.159Z,3.32
2023-05-12T00:15:29.162Z,3.44
2023-05-12T00:16:30.268Z,2.76
2023-05-12T00:17:30.236Z,3.24
2023-05-12T00:18:30.232Z,3.19
2023-05-12T00:19:30.267Z,3.66
2023-05-12T00:20:30.286Z,3.27
2023-05-12T00:21:29.355Z,2.72
2023-05-12T00:22:29.355Z,3.17
2023-05-12T00:23:30.391Z,2.58
2023-05-12T00:24:30.425Z,2.59
2023-05-12T00:25:30.446Z,2.24
2023-05-12T00:26:29.498Z,2.58
2023-05-12T00:27:30.547Z,2.66
2023-05-12T00:28:30.597Z,2.00
2023-05-12T00:29:30.641Z,1.58
2023-05-12T00:30:30.691Z,1.96
2023-05-12T00:31:30.752Z,2.98
2023-05-12T00:32:29.825Z,3.10
2023-05-12T00:33:29.794Z,2.71
2023-05-12T00:34:30.840Z,2.99
2023-05-12T00:35:30.846Z,2.34
2023-05-12T00:36:30.897Z,1.48
2023-05-12T00:37:30.903Z,2.26
2023-05-12T00:38:30.926Z,2.33
2023-05-12T00:39:29.940Z,4.49
2023-05-12T00:40:30.939Z,3.43
2023-05-12T00:41:30.010Z,3.44
2023-05-12T00:42:31.069Z,3.53
2023-05-12T00:43:31.092Z,3.38
2023-05-12T00:44:31.155Z,4.23
2023-05-12T00:45:30.193Z,4.08
2023-05-12T00:46:31.290Z,3.73
2023-05-12T00:47:30.358Z,5.09
2023-05-12T00:48:31.342Z,4.27
2023-05-12T00:49:30.366Z,4.15
2023-05-12T00:50:31.392Z,3.96
2023-05-12T00:51:31.418Z,3.57
2023-05-12T00:52:30.450Z,3.79
2023-05-12T00:53:44.991Z,3.41
2023-05-12T00:54:31.505Z,3.70
2023-05-12T00:55:31.474Z,3.24
2023-05-12T00:56:31.450Z,4.48
2023-05-12T00:57:30.453Z,3.94
2023-05-12T00:58:30.450Z,4.24
2023-05-12T00:59:30.463Z,4.76
2023-05-12T01:00:31.430Z,5.57
2023-05-12T01:01:31.480Z,5.05
2023-05-12T01:02:30.465Z,5.93
2023-05-12T01:03:31.550Z,5.85
2023-05-12T01:04:31.431Z,6.09
2023-05-12T01:05:30.393Z,8.18
2023-05-12T01:06:30.409Z,6.98
2023-05-12T01:07:30.371Z,6.44
2023-05-12T01:08:31.375Z,5.63
2023-05-12T01:09:31.366Z,4.45
2023-05-12T01:10:30.367Z,3.82
2023-05-12T01:11:31.394Z,4.47
2023-05-12T01:12:30.384Z,4.49
2023-05-12T01:13:30.333Z,4.67
2023-05-12T01:14:31.321Z,5.09
2023-05-12T01:15:31.309Z,6.65
2023-05-12T01:16:31.321Z,6.93
2023-05-12T01:17:30.461Z,5.63
2023-05-12T01:18:31.467Z,5.01
2023-05-12T01:19:30.302Z,4.08
2023-05-12T01:20:31.339Z,4.84
2023-05-12T01:21:30.264Z,4.26
2023-05-12T01:22:31.273Z,4.62
2023-05-12T01:23:31.266Z,4.60
2023-05-12T01:24:31.276Z,5.52
2023-05-12T01:25:31.254Z,5.48
2023-05-12T01:26:30.247Z,4.42
2023-05-12T01:27:31.239Z,5.01
2023-05-12T01:28:31.218Z,5.14
2023-05-12T01:29:30.230Z,4.68
2023-05-12T01:30:30.250Z,4.49
2023-05-12T01:31:31.265Z,5.23
2023-05-12T01:32:30.325Z,4.57
2023-05-12T01:33:31.307Z,4.79
2023-05-12T01:34:30.308Z,4.17
2023-05-12T01:35:31.334Z,4.55
2023-05-12T01:36:31.462Z,3.86
2023-05-12T01:37:30.404Z,4.54
2023-05-12T01:38:30.450Z,4.42
2023-05-12T01:39:31.488Z,4.05
2023-05-12T01:40:31.554Z,4.49
2023-05-12T01:41:31.575Z,3.99
2023-05-12T01:42:31.620Z,3.88
2023-05-12T01:43:30.640Z,3.94
2023-05-12T01:44:31.658Z,3.28
2023-05-12T01:45:30.650Z,2.67
2023-05-12T01:46:30.742Z,3.20
2023-05-12T01:47:31.884Z,3.18
2023-05-12T01:48:31.801Z,3.47
2023-05-12T01:49:31.855Z,3.26
2023-05-12T01:50:30.838Z,2.81
2023-05-12T01:51:31.893Z,2.64
2023-05-12T01:52:30.924Z,3.24
2023-05-12T01:53:31.951Z,2.87
2023-05-12T01:54:30.984Z,3.22
2023-05-12T01:55:32.018Z,3.20
2023-05-12T01:56:31.054Z,3.72
2023-05-12T01:57:31.124Z,3.27
2023-05-12T01:58:32.126Z,3.56
2023-05-12T01:59:31.147Z,3.50
2023-05-12T02:00:31.138Z,3.52
2023-05-12T02:01:31.205Z,3.52
2023-05-12T02:02:32.290Z,3.13
2023-05-12T02:03:31.352Z,2.84
2023-05-12T02:04:32.250Z,2.48
2023-05-12T02:05:31.246Z,2.83
2023-05-12T02:06:31.266Z,2.54
2023-05-12T02:07:31.282Z,2.86
2023-05-12T02:08:32.326Z,2.85
2023-05-12T02:09:32.352Z,2.75
2023-05-12T02:10:31.370Z,3.08
2023-05-12T02:11:31.437Z,2.66
2023-05-12T02:12:32.424Z,3.08
2023-05-12T02:13:32.482Z,3.18
2023-05-12T02:14:32.551Z,3.12
2023-05-12T02:15:31.598Z,2.62
2023-05-12T02:16:32.668Z,2.76
2023-05-12T02:17:32.716Z,2.57
2023-05-12T02:18:32.796Z,2.82
2023-05-12T02:19:31.795Z,2.55
2023-05-12T02:20:32.804Z,3.00
2023-05-12T02:21:31.801Z,2.11
2023-05-12T02:22:31.849Z,2.77
2023-05-12T02:23:31.856Z,3.12
2023-05-12T02:24:31.906Z,2.86
2023-05-12T02:25:32.909Z,3.00
2023-05-12T02:26:32.926Z,3.44
2023-05-12T02:27:31.975Z,4.24
2023-05-12T02:28:33.030Z,3.43
2023-05-12T02:29:33.012Z,4.12
2023-05-12T02:30:33.016Z,4.09
2023-05-12T02:31:33.071Z,4.55
2023-05-12T02:32:32.060Z,4.75
2023-05-12T02:33:33.035Z,4.03
2023-05-12T02:34:33.068Z,3.54
2023-05-12T02:35:32.035Z,4.28
2023-05-12T02:36:32.049Z,4.20
2023-05-12T02:37:33.082Z,3.41
2023-05-12T02:38:33.101Z,3.50
2023-05-12T02:39:33.306Z,2.87
2023-05-12T02:40:33.241Z,3.33
2023-05-12T02:41:33.209Z,3.25
2023-05-12T02:42:32.213Z,3.29
2023-05-12T02:43:33.278Z,2.69
2023-05-12T02:44:33.323Z,3.83
2023-05-12T02:45:32.358Z,3.37
2023-05-12T02:46:32.354Z,2.62
2023-05-12T02:47:33.417Z,3.04
2023-05-12T02:48:33.365Z,3.32
2023-05-12T02:49:33.384Z,3.62
2023-05-12T02:50:33.433Z,3.62
2023-05-12T02:51:32.491Z,3.18
2023-05-12T02:52:32.513Z,3.60
2023-05-12T02:53:33.584Z,3.30
2023-05-12T02:54:33.624Z,2.88
2023-05-12T02:55:32.672Z,3.96
2023-05-12T02:56:34.062Z,3.54
2023-05-12T02:57:32.656Z,3.33
2023-05-12T02:58:33.674Z,3.74
2023-05-12T02:59:33.688Z,4.02
2023-05-12T03:00:33.701Z,4.03
2023-05-12T03:01:33.750Z,4.07
2023-05-12T03:02:33.828Z,3.95
2023-05-12T03:03:32.960Z,4.63
2023-05-12T03:04:32.834Z,3.58
2023-05-12T03:05:32.872Z,4.13
2023-05-12T03:06:32.868Z,3.73
2023-05-12T03:07:32.917Z,3.56
2023-05-12T03:08:32.989Z,3.75
2023-05-12T03:09:34.026Z,3.94
2023-05-12T03:10:33.041Z,4.24
2023-05-12T03:11:33.129Z,4.97
2023-05-12T03:12:34.156Z,4.61
2023-05-12T03:13:34.181Z,5.26
2023-05-12T03:14:34.219Z,5.14
2023-05-12T03:15:34.218Z,4.97
2023-05-12T03:16:34.294Z,5.27
2023-05-12T03:17:34.303Z,4.93
2023-05-12T03:18:34.347Z,5.04
2023-05-12T03:19:33.326Z,4.87
2023-05-12T03:20:33.320Z,4.73
2023-05-12T03:21:34.318Z,4.95
2023-05-12T03:22:34.350Z,4.83
2023-05-12T03:23:33.378Z,5.69
2023-05-12T03:24:33.384Z,6.20
2023-05-12T03:25:33.422Z,5.29
2023-05-12T03:26:33.461Z,5.25
2023-05-12T03:27:34.500Z,4.97
2023-05-12T03:28:34.498Z,4.63
2023-05-12T03:29:34.509Z,5.41
2023-05-12T03:30:33.547Z,4.88
2023-05-12T03:31:34.569Z,4.22
2023-05-12T03:32:33.664Z,4.39
2023-05-12T03:33:34.612Z,4.11
2023-05-12T03:34:33.625Z,4.10
2023-05-12T03:35:33.618Z,3.78
2023-05-12T03:36:33.648Z,4.39
2023-05-12T03:37:33.713Z,4.07
2023-05-12T03:38:34.760Z,4.86
2023-05-12T03:39:34.818Z,4.26
2023-05-12T03:40:33.849Z,4.13
2023-05-12T03:41:34.899Z,4.13
2023-05-12T03:42:34.951Z,4.96
2023-05-12T03:43:34.113Z,4.04
2023-05-12T03:44:35.040Z,4.28
2023-05-12T03:45:33.998Z,4.74
2023-05-12T03:46:35.151Z,4.44
2023-05-12T03:47:34.285Z,3.99
2023-05-12T03:48:35.114Z,4.30
2023-05-12T03:49:35.194Z,3.20
2023-05-12T03:50:35.244Z,3.32
2023-05-12T03:51:35.254Z,3.60
2023-05-12T03:52:35.325Z,3.76
2023-05-12T03:53:35.374Z,3.41
2023-05-12T03:55:34.414Z,4.41
2023-05-12T03:56:35.465Z,3.75
2023-05-12T03:57:35.479Z,4.02
2023-05-12T03:58:34.501Z,3.70
2023-05-12T03:59:35.556Z,4.64
2023-05-12T04:00:35.141Z,3.61
2023-05-12T04:01:35.546Z,3.71
2023-05-12T04:02:35.643Z,3.99
2023-05-12T04:03:34.766Z,4.58
2023-05-12T04:04:34.688Z,4.32
2023-05-12T04:05:35.754Z,4.45
2023-05-12T04:06:35.791Z,3.86
2023-05-12T04:07:34.846Z,3.85
2023-05-12T04:08:35.858Z,3.85
2023-05-12T04:09:34.876Z,4.61
2023-05-12T04:10:35.950Z,4.20
2023-05-12T04:11:34.956Z,4.49
2023-05-12T04:12:34.980Z,4.08
2023-05-12T04:13:36.007Z,3.98
2023-05-12T04:14:42.353Z,4.26
2023-05-12T04:15:36.048Z,4.20
2023-05-12T04:16:36.056Z,3.96
2023-05-12T04:17:36.028Z,4.50
2023-05-12T04:18:35.055Z,4.90
2023-05-12T04:19:35.996Z,3.99
2023-05-12T04:20:34.978Z,4.40
2023-05-12T04:21:35.968Z,4.05
2023-05-12T04:22:35.972Z,4.31
2023-05-12T04:23:35.957Z,4.36
2023-05-12T04:24:35.952Z,4.69
2023-05-12T04:25:35.961Z,4.78
2023-05-12T04:26:34.921Z,4.58
2023-05-12T04:27:35.936Z,4.50
2023-05-12T04:28:34.907Z,4.67
2023-05-12T04:29:35.933Z,4.45
2023-05-12T04:30:35.944Z,4.63
2023-05-12T04:31:36.008Z,4.14
2023-05-12T04:32:36.050Z,4.75
2023-05-12T04:33:36.013Z,4.18
2023-05-12T04:34:36.065Z,3.97
2023-05-12T04:35:36.101Z,4.24
2023-05-12T04:36:36.146Z,4.49
2023-05-12T04:37:36.149Z,3.87
2023-05-12T04:38:36.153Z,4.26
2023-05-12T04:39:36.198Z,3.99
2023-05-12T04:40:36.242Z,4.42
2023-05-12T04:41:36.284Z,4.16
2023-05-12T04:42:36.335Z,4.17
2023-05-12T04:44:35.343Z,4.23
2023-05-12T04:45:35.354Z,5.17
2023-05-12T04:46:36.444Z,4.85
2023-05-12T04:47:36.510Z,5.42
2023-05-12T04:48:36.297Z,4.90
2023-05-12T04:49:36.308Z,4.34
2023-05-12T04:50:35.323Z,4.34
2023-05-12T04:51:36.289Z,4.33
2023-05-12T04:52:36.285Z,4.47
2023-05-12T04:53:35.272Z,4.32
2023-05-12T04:54:36.282Z,4.58
2023-05-12T04:55:36.277Z,4.42
2023-05-12T04:56:36.257Z,4.74
2023-05-12T04:57:36.245Z,5.34
2023-05-12T04:58:35.297Z,5.11
2023-05-12T04:59:35.237Z,4.81
2023-05-12T05:00:36.248Z,5.63
2023-05-12T05:01:36.255Z,4.89
2023-05-12T05:02:35.289Z,4.77
2023-05-12T05:03:36.336Z,3.59
2023-05-12T05:04:36.245Z,4.11
2023-05-12T05:05:36.220Z,4.17
2023-05-12T05:06:35.193Z,4.29
2023-05-12T05:07:36.200Z,4.00
2023-05-12T05:08:36.194Z,4.97
2023-05-12T05:09:36.743Z,4.62
2023-05-12T05:10:35.181Z,4.92
2023-05-12T05:11:36.188Z,4.63
2023-05-12T05:12:36.151Z,3.95
2023-05-12T05:13:35.149Z,4.49
2023-05-12T05:14:36.137Z,4.48
2023-05-12T05:15:35.174Z,4.07
2023-05-12T05:16:36.135Z,4.33
2023-05-12T05:17:36.137Z,4.15
2023-05-12T05:18:36.168Z,4.09
2023-05-12T05:19:50.773Z,4.16
2023-05-12T05:20:40.621Z,4.06
2023-05-12T05:21:36.101Z,4.59
2023-05-12T05:22:35.077Z,4.21
2023-05-12T05:23:35.078Z,4.77
2023-05-12T05:24:36.090Z,4.41
2023-05-12T05:25:36.081Z,3.72
2023-05-12T05:26:35.062Z,3.99
2023-05-12T05:27:36.056Z,3.97
2023-05-12T05:28:35.047Z,4.66
2023-05-12T05:29:35.031Z,4.13
2023-05-12T05:30:36.044Z,3.60
2023-05-12T05:31:35.136Z,4.21
2023-05-12T05:32:36.080Z,3.38
2023-05-12T05:33:35.027Z,3.44
2023-05-12T05:34:36.094Z,3.84
2023-05-12T05:35:36.031Z,3.76
2023-05-12T05:36:35.973Z,3.42
2023-05-12T05:37:34.975Z,3.83
2023-05-12T05:38:36.010Z,3.36
2023-05-12T05:39:35.990Z,3.52
2023-05-12T05:40:48.732Z,3.61
2023-05-12T05:41:35.968Z,3.11
2023-05-12T05:42:34.961Z,3.30
2023-05-12T05:43:35.940Z,3.52
2023-05-12T05:44:35.942Z,3.16
2023-05-12T05:45:34.936Z,3.37
2023-05-12T05:46:34.954Z,3.74
2023-05-12T05:47:35.953Z,3.54
2023-05-12T05:48:35.903Z,3.43
2023-05-12T05:49:35.902Z,3.25
2023-05-12T05:50:35.997Z,3.53
2023-05-12T05:51:35.971Z,3.16
2023-05-12T05:52:36.000Z,3.19
2023-05-12T05:53:35.999Z,3.66
2023-05-12T05:54:35.041Z,4.21
2023-05-12T05:55:36.069Z,4.40
2023-05-12T05:56:36.112Z,4.40
2023-05-12T05:57:36.360Z,4.28
2023-05-12T05:58:36.237Z,4.34
2023-05-12T05:59:36.933Z,3.93
2023-05-12T06:00:36.188Z,5.29
2023-05-12T06:01:36.239Z,5.79
2023-05-12T06:02:36.351Z,5.28
2023-05-12T06:03:36.266Z,5.61
2023-05-12T06:04:36.237Z,4.80
2023-05-12T06:05:36.219Z,4.88
2023-05-12T06:06:36.296Z,4.75
2023-05-12T06:07:36.252Z,5.13
2023-05-12T06:08:36.257Z,5.12
2023-05-12T06:09:36.289Z,4.70
2023-05-12T06:10:36.314Z,4.66
2023-05-12T06:11:36.310Z,4.67
2023-05-12T06:12:36.311Z,4.33
2023-05-12T06:13:36.380Z,5.19
2023-05-12T06:14:36.453Z,5.30
2023-05-12T06:15:35.431Z,4.75
2023-05-12T06:16:36.582Z,5.19
2023-05-12T06:17:35.624Z,5.48
2023-05-12T06:18:35.660Z,5.16
2023-05-12T06:19:36.661Z,5.11
2023-05-12T06:20:36.774Z,5.95
2023-05-12T06:21:35.766Z,4.99
2023-05-12T06:22:36.810Z,5.42
2023-05-12T06:23:36.864Z,5.60
2023-05-12T06:24:36.926Z,6.21
2023-05-12T06:25:36.946Z,5.64
2023-05-12T06:26:41.365Z,5.94
2023-05-12T06:27:36.141Z,5.96
2023-05-12T06:28:36.995Z,6.08
2023-05-12T06:30:55.746Z,6.64
2023-05-12T06:31:55.650Z,5.42
2023-05-12T06:32:55.860Z,6.66
2023-05-12T06:33:56.548Z,5.93
2023-05-12T06:34:56.739Z,6.09
2023-05-12T06:35:56.471Z,5.58
2023-05-12T06:39:53.614Z,5.57
2023-05-12T06:41:58.795Z,5.98
2023-05-12T06:42:59.902Z,6.03
2023-05-12T06:44:00.337Z,5.60
2023-05-12T06:46:18.883Z,6.78
2023-05-12T06:48:38.074Z,7.52
2023-05-12T06:49:38.771Z,6.75
2023-05-12T06:50:37.813Z,7.10
2023-05-12T06:51:37.795Z,6.83
2023-05-12T06:52:38.756Z,6.47
2023-05-12T06:53:38.917Z,5.89
2023-05-12T06:54:37.955Z,5.79
2023-05-12T06:55:37.645Z,6.08
2023-05-12T06:56:38.867Z,6.58
2023-05-12T06:57:37.696Z,6.00
2023-05-12T06:58:38.608Z,6.53
2023-05-12T06:59:38.615Z,6.64
2023-05-12T07:00:38.633Z,6.20
2023-05-12T07:01:38.825Z,6.83
2023-05-12T07:02:37.679Z,6.76
2023-05-12T07:03:37.716Z,6.67
2023-05-12T07:04:37.619Z,5.89
2023-05-12T07:05:37.666Z,6.59
2023-05-12T07:06:38.891Z,6.21
2023-05-12T07:07:38.714Z,6.60
2023-05-12T07:08:38.948Z,6.47
2023-05-12T07:11:28.402Z,2.20
2023-05-12T07:12:27.302Z,6.94
2023-05-12T07:13:26.900Z,6.16
2023-05-12T07:14:26.435Z,5.17
2023-05-12T07:15:27.294Z,5.91
2023-05-12T07:16:27.274Z,5.36
2023-05-12T07:17:27.252Z,5.32
2023-05-12T07:18:27.971Z,5.14
2023-05-12T07:19:26.376Z,5.73
2023-05-12T07:20:27.493Z,5.16
2023-05-12T07:21:27.421Z,5.43
2023-05-12T07:22:26.722Z,5.95
2023-05-12T07:24:45.885Z,4.64
2023-05-12T07:28:27.873Z,4.92
2023-05-12T07:29:27.554Z,5.90
2023-05-12T07:30:25.686Z,5.97
2023-05-12T07:31:25.371Z,5.90
2023-05-12T07:32:24.421Z,5.24
2023-05-12T07:33:25.866Z,5.33
2023-05-12T07:35:44.043Z,3.98
2023-05-12T07:36:46.149Z,5.11
2023-05-12T07:37:44.170Z,5.67
2023-05-12T07:38:44.396Z,5.49
2023-05-12T07:39:44.423Z,5.93
2023-05-12T07:40:45.419Z,6.08
2023-05-12T07:41:43.409Z,5.43
2023-05-12T07:42:44.756Z,5.60
2023-05-12T07:45:03.209Z,5.54
2023-05-12T07:46:03.073Z,5.52
2023-05-12T07:47:04.356Z,5.94
2023-05-12T07:48:02.968Z,6.39
2023-05-12T07:49:02.922Z,6.34
2023-05-12T07:50:04.015Z,5.76
2023-05-12T07:51:04.344Z,5.79
2023-05-12T07:52:04.093Z,5.17
2023-05-12T07:53:04.154Z,6.12
2023-05-12T07:54:03.972Z,6.32
2023-05-12T07:55:03.907Z,5.89
2023-05-12T07:56:02.928Z,6.21
2023-05-12T07:57:03.912Z,5.73
2023-05-12T07:58:02.854Z,6.23
2023-05-12T07:59:03.910Z,6.82
2023-05-12T08:00:03.831Z,6.41
2023-05-12T08:01:03.853Z,5.38
2023-05-12T08:02:03.879Z,5.36
2023-05-12T08:03:02.897Z,6.46
2023-05-12T08:04:02.873Z,5.33
2023-05-12T08:05:03.807Z,6.15
2023-05-12T08:06:03.806Z,5.49
2023-05-12T08:07:03.781Z,5.99
2023-05-12T08:08:03.780Z,5.97
2023-05-12T08:09:03.766Z,5.76
2023-05-12T08:10:03.784Z,5.87
2023-05-12T08:11:03.767Z,5.56
2023-05-12T08:12:03.766Z,6.24
2023-05-12T08:13:03.751Z,5.53
2023-05-12T08:14:02.738Z,6.29
2023-05-12T08:15:03.720Z,5.71
2023-05-12T08:16:03.787Z,5.27
2023-05-12T08:17:02.849Z,6.03
2023-05-12T08:18:02.746Z,6.08
2023-05-12T08:19:03.785Z,5.13
2023-05-12T08:20:03.718Z,5.10
2023-05-12T08:21:03.688Z,5.55
2023-05-12T08:22:03.690Z,5.79
2023-05-12T08:24:22.710Z,5.97
2023-05-12T08:25:23.144Z,5.94
2023-05-12T08:26:23.148Z,6.03
2023-05-12T08:27:22.124Z,5.69
2023-05-12T08:28:23.083Z,5.54
2023-05-12T08:29:22.120Z,4.86
2023-05-12T08:30:24.506Z,5.59
2023-05-12T08:31:23.143Z,5.21
2023-05-12T08:32:22.506Z,5.81
2023-05-12T08:33:22.062Z,5.22
2023-05-12T08:34:22.061Z,5.13
2023-05-12T08:35:22.471Z,6.35
2023-05-12T08:36:28.249Z,5.35
2023-05-12T08:38:50.169Z,5.55
2023-05-12T08:41:00.618Z,5.51
2023-05-12T08:42:00.744Z,5.64
2023-05-12T08:43:16.384Z,5.58
2023-05-12T08:44:22.746Z,4.40
2023-05-12T08:50:12.396Z,4.40
2023-05-12T08:53:51.016Z,6.13
2023-05-12T08:54:55.995Z,5.99
2023-05-12T08:57:09.549Z,6.02
2023-05-12T08:57:50.775Z,5.84
2023-05-12T08:58:51.757Z,5.50
2023-05-12T09:02:51.377Z,2.55
2023-05-12T09:04:48.024Z,5.66
2023-05-12T09:05:47.386Z,5.74
2023-05-12T09:06:48.309Z,5.56
2023-05-12T09:09:06.626Z,5.69
2023-05-12T09:10:06.540Z,5.42
2023-05-12T09:12:26.392Z,6.31
2023-05-12T09:13:26.436Z,5.34
2023-05-12T09:14:34.378Z,6.66
2023-05-12T09:15:25.253Z,6.55
2023-05-12T09:16:25.314Z,4.84
2023-05-12T09:17:26.335Z,3.82
2023-05-12T09:19:44.264Z,4.74
2023-05-12T09:20:45.287Z,5.04
2023-05-12T09:21:45.471Z,4.85
2023-05-12T09:22:44.479Z,5.03
2023-05-12T09:23:44.299Z,4.60
2023-05-12T09:28:41.955Z,4.16
2023-05-12T09:29:58.039Z,3.44
2023-05-12T09:30:43.006Z,3.17
2023-05-12T09:31:42.958Z,3.41
2023-05-12T09:32:45.160Z,3.12
2023-05-12T09:33:42.878Z,3.45
2023-05-12T09:34:41.871Z,2.89
2023-05-12T09:35:43.174Z,2.92
2023-05-12T09:36:42.953Z,3.33
2023-05-12T09:37:42.941Z,3.97
2023-05-12T09:38:54.217Z,3.21
2023-05-12T09:39:42.818Z,3.55
2023-05-12T09:40:42.855Z,2.20
2023-05-12T09:41:41.797Z,1.90
2023-05-12T09:42:41.964Z,2.34
2023-05-12T09:43:42.946Z,2.18
2023-05-12T09:44:41.792Z,1.75
2023-05-12T09:45:42.878Z,1.82
2023-05-12T09:46:42.854Z,2.16
2023-05-12T09:47:43.162Z,1.80
2023-05-12T09:48:42.816Z,1.69
2023-05-12T09:49:43.042Z,1.76
2023-05-12T09:50:47.360Z,1.75
2023-05-12T09:51:43.023Z,2.08
2023-05-12T09:52:42.257Z,1.39
2023-05-12T09:53:43.026Z,1.43
2023-05-12T09:54:42.902Z,1.63
2023-05-12T09:55:42.816Z,1.64
2023-05-12T09:56:42.909Z,1.55
2023-05-12T09:57:42.829Z,1.50
2023-05-12T09:58:42.706Z,1.14
2023-05-12T09:59:43.774Z,1.42
2023-05-12T10:01:41.715Z,1.84
2023-05-12T10:02:42.725Z,1.57
2023-05-12T10:03:41.702Z,1.70
2023-05-12T10:04:42.702Z,1.76
2023-05-12T10:05:42.645Z,1.42
2023-05-12T10:06:54.201Z,1.42
2023-05-12T10:07:42.648Z,2.62
2023-05-12T10:08:42.666Z,1.49
2023-05-12T10:09:42.078Z,2.36
2023-05-12T10:12:01.556Z,3.11
2023-05-12T10:14:21.091Z,2.00
2023-05-12T10:15:22.200Z,1.67
2023-05-12T10:16:20.926Z,1.50
2023-05-12T10:17:22.228Z,1.62
2023-05-12T10:18:21.952Z,1.13
2023-05-12T10:19:20.804Z,1.61
2023-05-12T10:21:40.177Z,2.84
2023-05-12T10:22:40.859Z,1.64
2023-05-12T10:23:41.506Z,2.17
2023-05-12T10:24:42.341Z,2.54
2023-05-12T10:27:00.152Z,1.15
2023-05-12T10:27:59.586Z,0.86
2023-05-12T10:30:18.477Z,1.39
2023-05-12T10:31:19.615Z,1.34
2023-05-12T10:32:24.166Z,1.24
2023-05-12T10:35:49.814Z,1.07
2023-05-12T10:42:29.978Z,1.07
2023-05-12T10:44:51.011Z,2.01
2023-05-12T10:47:08.000Z,1.24
2023-05-12T10:48:09.241Z,1.27
2023-05-12T10:49:09.074Z,1.30
2023-05-12T10:50:07.949Z,0.98
2023-05-12T10:51:08.929Z,1.56
2023-05-12T10:52:08.038Z,1.00
2023-05-12T10:53:10.514Z,1.28
2023-05-12T10:54:09.171Z,0.83
2023-05-12T10:55:09.247Z,0.77
2023-05-12T10:56:08.663Z,0.85
2023-05-12T10:57:08.398Z,1.00
2023-05-12T10:58:08.757Z,0.97
2023-05-12T10:59:08.605Z,2.05
2023-05-12T11:00:08.649Z,1.49
2023-05-12T11:01:09.170Z,1.05
2023-05-12T11:02:09.161Z,1.05
2023-05-12T11:03:10.382Z,0.95
2023-05-12T11:04:09.518Z,1.87
2023-05-12T11:05:10.069Z,1.31
2023-05-12T11:06:10.354Z,0.78
2023-05-12T11:07:09.786Z,1.10
2023-05-12T11:08:09.751Z,0.45
2023-05-12T11:09:09.551Z,2.07
2023-05-12T11:10:10.531Z,1.61
2023-05-12T11:11:09.394Z,1.57
2023-05-12T11:12:09.354Z,1.28
2023-05-12T11:13:08.453Z,1.82
2023-05-12T11:14:09.365Z,1.31
2023-05-12T11:15:08.431Z,1.23
2023-05-12T11:16:09.416Z,1.74
2023-05-12T11:17:08.425Z,1.64
2023-05-12T11:18:09.542Z,1.68
2023-05-12T11:19:09.538Z,1.49
2023-05-12T11:20:09.496Z,2.10
2023-05-12T11:21:09.534Z,1.14
2023-05-12T11:27:17.110Z,1.07
2023-05-12T11:28:13.494Z,0.96
2023-05-12T11:30:33.194Z,1.34
2023-05-12T11:31:31.590Z,1.15
2023-05-12T11:35:13.969Z,1.07
2023-05-12T11:39:44.538Z,1.07
2023-05-12T11:40:50.500Z,1.02
2023-05-12T11:44:26.207Z,1.60
2023-05-12T11:45:27.144Z,1.17
2023-05-12T11:47:46.079Z,2.35
2023-05-12T11:48:46.897Z,2.03
2023-05-12T11:49:48.896Z,1.57
2023-05-12T11:50:46.667Z,1.28
2023-05-12T11:51:46.496Z,1.66
2023-05-12T11:54:05.311Z,1.51
2023-05-12T11:56:24.932Z,2.04
2023-05-12T11:57:26.129Z,1.57
2023-05-12T12:00:26.199Z,2.04
2023-05-12T12:01:26.055Z,0.83
2023-05-12T12:02:27.106Z,0.82
2023-05-12T12:03:27.208Z,0.59
2023-05-12T12:04:27.048Z,0.62
2023-05-12T12:05:27.022Z,0.47
2023-05-12T12:06:27.004Z,0.53
2023-05-12T12:07:26.986Z,0.64
2023-05-12T12:08:25.996Z,0.59
2023-05-12T12:09:26.981Z,0.99
2023-05-12T12:10:26.985Z,0.90
2023-05-12T12:11:26.939Z,0.78
2023-05-12T12:12:26.978Z,0.83
2023-05-12T12:13:26.048Z,0.65
2023-05-12T12:14:26.953Z,0.59
2023-05-12T12:15:25.914Z,0.93
2023-05-12T12:16:26.913Z,0.73
2023-05-12T12:17:26.947Z,1.09
2023-05-12T12:18:25.966Z,1.18
2023-05-12T12:19:26.948Z,1.17
2023-05-12T12:20:26.888Z,1.22
2023-05-12T12:21:26.866Z,0.66
2023-05-12T12:22:26.914Z,0.47
2023-05-12T12:23:25.975Z,1.32
2023-05-12T12:24:25.986Z,1.00
2023-05-12T12:25:25.999Z,0.58
2023-05-12T12:26:26.036Z,0.70
2023-05-12T12:27:27.055Z,0.40
2023-05-12T12:28:26.133Z,1.08
2023-05-12T12:29:26.156Z,1.70
2023-05-12T12:30:27.185Z,0.95
2023-05-12T12:31:26.260Z,1.39
2023-05-12T12:32:27.232Z,0.89
2023-05-12T12:33:26.288Z,0.78
2023-05-12T12:34:26.434Z,0.72
2023-05-12T12:35:26.358Z,1.09
2023-05-12T12:36:27.368Z,0.61
2023-05-12T12:37:27.367Z,0.76
2023-05-12T12:38:26.389Z,0.44
2023-05-12T12:39:26.423Z,0.92
2023-05-12T12:40:27.461Z,0.54
2023-05-12T12:41:27.463Z,0.64
2023-05-12T12:42:26.531Z,0.80
2023-05-12T12:43:26.561Z,0.54
2023-05-12T12:44:27.585Z,0.57
2023-05-12T12:45:27.573Z,0.44
2023-05-12T12:46:26.645Z,0.50
2023-05-12T12:47:26.698Z,0.57
2023-05-12T12:48:27.691Z,0.52
2023-05-12T12:49:27.669Z,0.57
2023-05-12T12:50:27.736Z,0.79
2023-05-12T12:51:32.598Z,1.11
2023-05-12T12:52:27.741Z,1.16
2023-05-12T12:53:26.739Z,0.52
2023-05-12T12:54:27.841Z,0.90
2023-05-12T12:55:26.733Z,0.60
2023-05-12T12:56:27.734Z,0.65
2023-05-12T12:57:27.696Z,0.51
2023-05-12T12:58:26.720Z,0.56
2023-05-12T12:59:26.703Z,0.94
2023-05-12T13:00:27.721Z,0.72
2023-05-12T13:01:26.786Z,0.89
2023-05-12T13:02:26.728Z,0.99
2023-05-12T13:03:27.717Z,1.41
2023-05-12T13:04:26.673Z,0.82
2023-05-12T13:05:27.671Z,0.66
2023-05-12T13:06:27.709Z,0.97
2023-05-12T13:07:27.769Z,0.69
2023-05-12T13:08:26.765Z,1.10
2023-05-12T13:09:27.823Z,0.76
2023-05-12T13:10:27.853Z,0.75
2023-05-12T13:11:27.873Z,0.65
2023-05-12T13:12:26.936Z,0.79
2023-05-12T13:13:26.959Z,0.72
2023-05-12T13:14:27.977Z,0.61
2023-05-12T13:15:27.995Z,0.64
2023-05-12T13:16:28.019Z,0.70
2023-05-12T13:17:28.134Z,0.53
2023-05-12T13:18:28.119Z,0.62
2023-05-12T13:19:27.055Z,0.96
2023-05-12T13:20:28.085Z,2.18
2023-05-12T13:21:27.100Z,0.77
2023-05-12T13:22:27.118Z,0.67
2023-05-12T13:23:28.196Z,0.74
2023-05-12T13:24:28.219Z,1.14
2023-05-12T13:25:27.258Z,0.85
2023-05-12T13:26:27.256Z,0.79
2023-05-12T13:27:27.262Z,0.65
2023-05-12T13:28:27.263Z,0.79
2023-05-12T13:29:28.323Z,0.75
2023-05-12T13:30:27.341Z,1.08
2023-05-12T13:31:27.434Z,1.05
2023-05-12T13:32:27.401Z,1.12
2023-05-12T13:33:28.403Z,1.00
2023-05-12T13:34:28.434Z,0.91
2023-05-12T13:35:27.432Z,0.84
2023-05-12T13:36:27.454Z,0.98
2023-05-12T13:37:27.526Z,1.29
2023-05-12T13:38:28.537Z,0.83
2023-05-12T13:39:28.596Z,1.08
2023-05-12T13:40:28.614Z,1.39
2023-05-12T13:41:27.642Z,1.28
2023-05-12T13:42:27.725Z,1.11
2023-05-12T13:43:28.706Z,1.09
2023-05-12T13:44:28.737Z,0.74
2023-05-12T13:45:27.781Z,0.88
2023-05-12T13:46:27.868Z,1.15
2023-05-12T13:47:28.894Z,1.01
2023-05-12T13:48:28.942Z,0.85
2023-05-12T13:49:27.996Z,0.71
2023-05-12T13:50:29.414Z,0.61
2023-05-12T13:51:28.063Z,0.82
2023-05-12T13:52:28.087Z,1.00
2023-05-12T13:53:28.102Z,0.93
2023-05-12T13:54:28.159Z,0.95
2023-05-12T13:55:28.275Z,0.90
2023-05-12T13:56:28.205Z,0.94
2023-05-12T13:57:29.256Z,1.02
2023-05-12T13:58:28.280Z,1.39
2023-05-12T13:59:29.324Z,1.03
2023-05-12T14:00:29.367Z,0.98
2023-05-12T14:01:29.432Z,0.81
2023-05-12T14:02:28.432Z,1.05
2023-05-12T14:03:28.438Z,1.04
2023-05-12T14:04:29.472Z,0.92
2023-05-12T14:05:29.565Z,1.11
2023-05-12T14:06:29.580Z,0.59
2023-05-12T14:07:29.628Z,0.62
2023-05-12T14:08:29.647Z,0.71
2023-05-12T14:09:29.683Z,0.98
2023-05-12T14:10:29.732Z,0.96
2023-05-12T14:11:28.781Z,0.74
2023-05-12T14:12:29.755Z,0.99
2023-05-12T14:13:29.797Z,1.15
2023-05-12T14:14:29.851Z,0.75
2023-05-12T14:15:40.553Z,0.93
2023-05-12T14:16:29.895Z,0.88
2023-05-12T14:17:29.887Z,0.90
2023-05-12T14:18:32.913Z,0.95
2023-05-12T14:19:28.867Z,0.78
2023-05-12T14:20:28.838Z,0.88
2023-05-12T14:21:28.825Z,1.32
2023-05-12T14:22:29.835Z,1.00
2023-05-12T14:23:29.829Z,1.20
2023-05-12T14:24:28.801Z,1.19
2023-05-12T14:25:28.810Z,0.96
2023-05-12T14:26:29.795Z,0.89
2023-05-12T14:27:29.829Z,1.06
2023-05-12T14:28:29.828Z,1.22
2023-05-12T14:29:28.785Z,1.07
2023-05-12T14:30:29.816Z,0.92
2023-05-12T14:31:28.847Z,0.83
2023-05-12T14:32:29.817Z,0.66
2023-05-12T14:33:29.747Z,1.10
2023-05-12T14:34:29.769Z,1.05
2023-05-12T14:35:28.769Z,0.84
2023-05-12T14:36:28.738Z,0.68
2023-05-12T14:37:29.727Z,0.87
2023-05-12T14:38:29.714Z,0.76
2023-05-12T14:39:28.755Z,0.84
2023-05-12T14:40:28.716Z,0.88
2023-05-12T14:41:28.700Z,0.75